Time;durP1;ratioP1;P1;durP2;ratioP2;P2;SDS_P1;SDS_P2;PMS_P1;PMS_P2;Temp;Humidity;BMP_temperature;BMP_pressure;BME280_temperature;BME280_humidity;BME280_pressure;Samples;Min_cycle;Max_cycle;Signal;HPM_P1;HPM_P2
2023/08/04 00:00:09;;;;;;;4.50;1.77;;;32.30;99.90;;;;;;5012937;28;20385;-54
2023/08/04 00:02:35;;;;;;;;;;;32.20;99.90;;;;;;5011436;28;20040;-54
2023/08/04 00:05:01;;;;;;;5.97;1.90;;;32.20;99.90;;;;;;5012789;28;19905;-52
2023/08/04 00:07:27;;;;;;;8.15;1.92;;;32.20;99.90;;;;;;5012622;28;20025;-53
2023/08/04 00:09:53;;;;;;;8.80;2.22;;;32.20;99.90;;;;;;5012820;28;20026;-53
2023/08/04 00:12:19;;;;;;;7.07;1.95;;;32.20;99.90;;;;;;5012253;28;20096;-53
2023/08/04 00:14:48;;;;;;;7.75;1.65;;;32.10;99.90;;;;;;5012513;28;20105;-53
2023/08/04 00:17:14;;;;;;;17.23;2.55;;;32.10;99.90;;;;;;5011703;28;20041;-56
2023/08/04 00:19:41;;;;;;;10.55;2.25;;;32.10;99.90;;;;;;5012584;28;20029;-50
2023/08/04 00:22:07;;;;;;;8.07;2.03;;;32.10;99.90;;;;;;5011767;28;20026;-53
2023/08/04 00:24:33;;;;;;;11.25;2.28;;;32.00;99.90;;;;;;5012396;28;20080;-54
2023/08/04 00:27:00;;;;;;;6.88;1.98;;;32.10;99.90;;;;;;5012375;28;20034;-53
2023/08/04 00:29:26;;;;;;;9.95;2.00;;;32.00;99.90;;;;;;5011327;28;20049;-54
2023/08/04 00:31:52;;;;;;;9.90;1.70;;;32.00;99.90;;;;;;5011470;28;20064;-51
2023/08/04 00:34:18;;;;;;;9.50;2.20;;;32.00;99.90;;;;;;5007161;28;20029;-53
2023/08/04 00:36:45;;;;;;;6.93;1.95;;;32.00;99.90;;;;;;5006177;28;20577;-53
2023/08/04 00:39:11;;;;;;;;;;;32.00;99.90;;;;;;5013348;28;20108;-56
2023/08/04 00:41:36;;;;;;;8.98;2.05;;;31.90;99.90;;;;;;5013783;28;20079;-55
2023/08/04 00:44:03;;;;;;;6.43;1.52;;;31.90;99.90;;;;;;5014285;28;20030;-55
2023/08/04 00:46:31;;;;;;;8.23;1.80;;;31.80;99.90;;;;;;5014368;28;20030;-55
2023/08/04 00:48:59;;;;;;;7.90;2.15;;;31.80;99.90;;;;;;4999845;28;20023;-52
2023/08/04 00:51:26;;;;;;;7.60;2.03;;;31.80;99.90;;;;;;5014171;28;20026;-52
2023/08/04 00:53:52;;;;;;;8.57;2.50;;;31.80;99.90;;;;;;5013722;28;20029;-52
2023/08/04 00:56:18;;;;;;;9.05;2.10;;;31.80;99.90;;;;;;5012615;28;20034;-52
2023/08/04 00:58:44;;;;;;;11.63;1.80;;;31.80;99.90;;;;;;5013832;28;20105;-52
2023/08/04 01:01:10;;;;;;;4.07;1.83;;;31.80;99.90;;;;;;5014054;28;20145;-53
2023/08/04 01:03:38;;;;;;;20.58;2.50;;;31.80;99.90;;;;;;5012609;28;20029;-52
2023/08/04 01:06:14;;;;;;;8.90;2.10;;;31.80;99.90;;;;;;5013857;28;20096;-52
2023/08/04 01:08:45;;;;;;;6.95;1.83;;;31.80;99.90;;;;;;5013692;28;20505;-53
2023/08/04 01:11:15;;;;;;;11.52;2.05;;;31.70;99.90;;;;;;5013717;28;20026;-52
2023/08/04 01:13:42;;;;;;;9.38;1.73;;;31.70;99.90;;;;;;5012429;28;20049;-53
2023/08/04 01:16:08;;;;;;;7.63;2.15;;;31.70;99.90;;;;;;5013724;28;20374;-52
2023/08/04 01:18:34;;;;;;;6.97;2.20;;;31.70;99.90;;;;;;5013557;28;20367;-52
2023/08/04 01:21:04;;;;;;;10.23;1.70;;;31.60;99.90;;;;;;5013818;28;20073;-52
2023/08/04 01:23:31;;;;;;;8.75;1.45;;;31.60;99.90;;;;;;5013636;28;20442;-53
2023/08/04 01:25:57;;;;;;;10.88;2.10;;;31.60;99.90;;;;;;5013669;28;20033;-53
2023/08/04 01:28:24;;;;;;;8.73;2.20;;;31.60;99.90;;;;;;5013502;28;20045;-53
2023/08/04 01:30:54;;;;;;;9.40;2.20;;;31.50;99.90;;;;;;5013408;28;20029;-53
2023/08/04 01:33:21;;;;;;;16.13;2.67;;;31.50;99.90;;;;;;5013290;28;20075;-53
2023/08/04 01:35:47;;;;;;;8.52;2.05;;;31.50;99.90;;;;;;5028410;28;20022;-52
2023/08/04 01:38:13;;;;;;;6.00;1.58;;;31.50;99.90;;;;;;5013233;28;20119;-53
2023/08/04 01:40:38;;;;;;;15.30;2.67;;;31.40;99.90;;;;;;5013155;28;20479;-53
2023/08/04 01:43:05;;;;;;;9.73;2.85;;;31.40;99.90;;;;;;5013081;28;20045;-53
2023/08/04 01:45:30;;;;;;;9.32;1.90;;;31.40;99.90;;;;;;5013269;28;20014;-52
2023/08/04 01:47:56;;;;;;;10.50;1.80;;;31.40;99.90;;;;;;5013058;28;20037;-53
2023/08/04 01:50:22;;;;;;;9.20;2.22;;;31.40;99.90;;;;;;5012885;28;20076;-52
2023/08/04 01:52:48;;;;;;;8.15;2.08;;;31.40;99.90;;;;;;5014165;28;20052;-52
2023/08/04 01:55:14;;;;;;;11.85;2.08;;;31.40;99.50;;;;;;5012594;28;20032;-52
2023/08/04 01:57:40;;;;;;;15.23;2.35;;;31.30;99.90;;;;;;5027530;28;20026;-52
2023/08/04 02:00:07;;;;;;;9.02;2.13;;;31.30;99.50;;;;;;5036084;23;20132;-54
2023/08/04 02:02:33;;;;;;;14.98;2.30;;;31.30;99.90;;;;;;5012711;28;20030;-54
2023/08/04 02:04:59;;;;;;;11.45;1.90;;;31.30;98.80;;;;;;5013276;28;20524;-54
2023/08/04 02:07:25;;;;;;;17.38;2.35;;;31.30;99.90;;;;;;5012654;28;20037;-55
2023/08/04 02:09:52;;;;;;;10.65;2.30;;;31.30;99.90;;;;;;5012318;28;20430;-54
2023/08/04 02:12:18;;;;;;;17.83;2.85;;;31.30;99.80;;;;;;5012507;28;20370;-54
2023/08/04 02:14:44;;;;;;;9.48;2.08;;;31.20;99.90;;;;;;5012568;28;20088;-54
2023/08/04 02:17:12;;;;;;;6.72;1.80;;;31.20;99.90;;;;;;5012315;28;20465;-54
2023/08/04 02:19:37;;;;;;;17.40;2.03;;;31.20;99.80;;;;;;5012455;28;20180;-55
2023/08/04 02:22:04;;;;;;;11.52;2.28;;;31.20;99.20;;;;;;4999061;28;20553;-55
2023/08/04 02:24:29;;;;;;;7.97;1.83;;;31.20;99.90;;;;;;5012691;28;20030;-54
2023/08/04 02:26:55;;;;;;;8.55;1.92;;;31.20;98.90;;;;;;5012469;28;20111;-55
2023/08/04 02:29:21;;;;;;;7.88;1.98;;;31.10;99.90;;;;;;5012371;28;20025;-56
2023/08/04 02:31:47;;;;;;;8.70;2.22;;;31.10;98.30;;;;;;5012487;28;20438;-57
2023/08/04 02:34:12;;;;;;;12.75;2.53;;;31.10;99.90;;;;;;5012153;28;20453;-55
2023/08/04 02:36:38;;;;;;;12.77;2.22;;;31.10;98.50;;;;;;5012199;28;20037;-55
2023/08/04 02:39:04;;;;;;;12.57;2.50;;;31.00;99.90;;;;;;5011315;28;20030;-54
2023/08/04 02:41:30;;;;;;;13.10;2.30;;;31.10;99.60;;;;;;5012189;28;20037;-54
2023/08/04 02:43:55;;;;;;;8.48;2.17;;;31.00;98.90;;;;;;5012082;28;20036;-56
2023/08/04 02:46:24;;;;;;;10.73;1.88;;;31.00;99.90;;;;;;5010914;28;20022;-54
2023/08/04 02:48:49;;;;;;;5.53;1.60;;;31.00;99.90;;;;;;5012334;28;20520;-55
2023/08/04 02:51:15;;;;;;;12.38;2.20;;;31.00;99.90;;;;;;5008436;28;20027;-54
2023/08/04 02:53:45;;;;;;;9.45;2.30;;;31.00;99.90;;;;;;5001373;28;20076;-56
2023/08/04 02:56:16;;;;;;;5.88;1.80;;;31.00;99.90;;;;;;5010309;28;20385;-57
2023/08/04 02:58:43;;;;;;;8.23;1.67;;;31.00;99.90;;;;;;5012102;28;20030;-56
2023/08/04 03:01:09;;;;;;;6.72;2.45;;;30.90;99.90;;;;;;5011803;28;20493;-56
2023/08/04 03:03:35;;;;;;;12.23;2.72;;;30.90;99.90;;;;;;5011962;28;20100;-55
2023/08/04 03:06:02;;;;;;;14.95;1.92;;;30.90;99.70;;;;;;5011835;28;20461;-55
2023/08/04 03:08:29;;;;;;;18.55;2.50;;;30.90;99.00;;;;;;5011800;28;20026;-55
2023/08/04 03:10:55;;;;;;;13.00;2.20;;;30.80;99.00;;;;;;5011951;28;20026;-55
2023/08/04 03:13:21;;;;;;;12.13;2.03;;;30.80;99.90;;;;;;5011966;28;20543;-56
2023/08/04 03:15:52;;;;;;;14.00;2.08;;;30.90;99.20;;;;;;5011764;28;20025;-56
2023/08/04 03:18:18;;;;;;;18.08;2.50;;;30.80;98.90;;;;;;5011808;28;20040;-55
2023/08/04 03:20:44;;;;;;;13.82;2.30;;;30.80;99.00;;;;;;5007117;28;20109;-55
2023/08/04 03:23:10;;;;;;;8.80;2.28;;;30.70;97.30;;;;;;5005125;28;20096;-56
2023/08/04 03:25:35;;;;;;;13.93;2.38;;;30.80;98.00;;;;;;5014605;28;20025;-54
2023/08/04 03:28:01;;;;;;;12.30;2.97;;;30.70;99.90;;;;;;5015696;28;20030;-55
2023/08/04 03:30:27;;;;;;;8.85;2.53;;;30.70;99.50;;;;;;5015419;28;20887;-54
2023/08/04 03:32:53;;;;;;;14.13;3.55;;;30.70;99.70;;;;;;5015629;28;20034;-54
2023/08/04 03:35:19;;;;;;;17.85;2.78;;;30.70;99.90;;;;;;5000944;28;20038;-56
2023/08/04 03:37:45;;;;;;;11.70;2.25;;;30.60;99.90;;;;;;5015647;28;20378;-54
2023/08/04 03:40:11;;;;;;;17.88;2.45;;;30.60;97.90;;;;;;5015201;28;20045;-54
2023/08/04 03:42:38;;;;;;;9.95;1.92;;;30.60;98.60;;;;;;5015594;28;20041;-53
2023/08/04 03:45:05;;;;;;;15.80;2.83;;;30.60;98.10;;;;;;5013748;28;20153;-53
2023/08/04 03:47:31;;;;;;;;;;;30.60;99.80;;;;;;5015770;28;20401;-55
2023/08/04 03:49:57;;;;;;;17.02;2.35;;;30.60;99.90;;;;;;5014044;28;19912;-51
2023/08/04 03:52:23;;;;;;;10.98;1.92;;;30.60;99.90;;;;;;5014926;28;20030;-53
2023/08/04 03:54:49;;;;;;;4.43;2.03;;;30.60;99.90;;;;;;5015167;28;20018;-51
2023/08/04 03:57:14;;;;;;;8.93;2.25;;;30.60;99.90;;;;;;5014790;28;20488;-54
2023/08/04 03:59:40;;;;;;;11.35;2.45;;;30.60;99.90;;;;;;5023176;23;20157;-54
2023/08/04 04:02:06;;;;;;;14.82;2.25;;;30.50;99.90;;;;;;4995797;28;20035;-54
2023/08/04 04:04:32;;;;;;;10.32;3.13;;;30.50;99.90;;;;;;5010249;28;20085;-55
2023/08/04 04:06:57;;;;;;;12.68;2.35;;;30.40;99.90;;;;;;4995017;28;20034;-54
2023/08/04 04:09:23;;;;;;;16.33;2.05;;;30.40;99.90;;;;;;4995239;28;20072;-53
2023/08/04 04:11:49;;;;;;;12.90;2.53;;;30.40;99.90;;;;;;4994995;28;20145;-53
2023/08/04 04:14:15;;;;;;;15.27;2.85;;;30.40;99.90;;;;;;4994911;28;20426;-55
2023/08/04 04:16:40;;;;;;;18.73;2.25;;;30.30;99.90;;;;;;4995026;28;20075;-54
2023/08/04 04:19:06;;;;;;;21.55;2.78;;;30.30;99.90;;;;;;4994967;28;20018;-56
2023/08/04 04:21:32;;;;;;;15.57;2.65;;;30.30;99.90;;;;;;4994720;28;20088;-57
2023/08/04 04:23:58;;;;;;;23.05;2.60;;;30.30;99.90;;;;;;4994766;28;20021;-55
2023/08/04 04:26:24;;;;;;;22.08;2.10;;;30.30;99.90;;;;;;4994726;28;20132;-53
2023/08/04 04:28:50;;;;;;;16.23;3.30;;;30.20;99.90;;;;;;4994539;28;20022;-56
2023/08/04 04:31:16;;;;;;;9.50;2.33;;;30.20;99.90;;;;;;4994741;28;20025;-55
2023/08/04 04:33:41;;;;;;;9.93;2.17;;;30.20;99.90;;;;;;5009212;28;20052;-55
2023/08/04 04:36:07;;;;;;;10.38;2.50;;;30.20;99.90;;;;;;4994964;28;20026;-55
2023/08/04 04:38:33;;;;;;;5.85;1.95;;;30.20;99.90;;;;;;4994082;28;20045;-56
2023/08/04 04:41:00;;;;;;;8.27;2.17;;;30.10;99.90;;;;;;4994354;28;20049;-55
2023/08/04 04:43:27;;;;;;;14.88;2.33;;;30.10;99.90;;;;;;4988417;28;20034;-55
2023/08/04 04:45:55;;;;;;;12.95;2.45;;;30.10;99.90;;;;;;4993345;28;20053;-54
2023/08/04 04:48:23;;;;;;;10.00;2.13;;;30.10;99.90;;;;;;4988045;28;20124;-55
2023/08/04 04:50:52;;;;;;;17.85;3.20;;;30.00;99.90;;;;;;4973682;28;20122;-55
2023/08/04 04:53:19;;;;;;;11.43;2.80;;;30.00;99.90;;;;;;4973649;28;20031;-55
2023/08/04 04:55:44;;;;;;;9.43;2.22;;;30.00;99.90;;;;;;4975133;28;20023;-57
2023/08/04 04:58:12;;;;;;;16.27;2.28;;;30.00;99.90;;;;;;4975288;28;20027;-56
2023/08/04 05:00:38;;;;;;;12.15;2.00;;;30.00;99.90;;;;;;4988098;28;20046;-55
2023/08/04 05:03:08;;;;;;;11.63;2.53;;;30.00;99.90;;;;;;4973277;28;20077;-56
2023/08/04 05:05:35;;;;;;;14.43;2.40;;;30.00;99.90;;;;;;4973582;28;20049;-55
2023/08/04 05:08:01;;;;;;;10.93;1.90;;;30.00;99.90;;;;;;4974892;28;20089;-55
2023/08/04 05:10:27;;;;;;;11.77;2.17;;;29.90;99.90;;;;;;4974702;28;20027;-56
2023/08/04 05:12:53;;;;;;;13.13;2.38;;;29.90;99.90;;;;;;4974758;28;20038;-57
2023/08/04 05:15:18;;;;;;;13.43;2.40;;;29.90;99.90;;;;;;4989862;28;20148;-57
2023/08/04 05:17:44;;;;;;;9.27;2.47;;;29.90;99.90;;;;;;4989574;28;20374;-56
2023/08/04 05:20:11;;;;;;;11.52;2.63;;;29.90;99.90;;;;;;4974870;28;20038;-56
2023/08/04 05:22:37;;;;;;;12.40;2.72;;;29.80;99.90;;;;;;4974417;28;20490;-56
2023/08/04 05:25:06;;;;;;;13.60;2.60;;;29.90;99.90;;;;;;4974529;28;20047;-56
2023/08/04 05:27:32;;;;;;;15.85;2.30;;;29.80;99.90;;;;;;4974480;28;20142;-56
2023/08/04 05:29:58;;;;;;;12.52;2.92;;;29.80;99.90;;;;;;4974134;28;20451;-56
2023/08/04 05:32:24;;;;;;;14.57;2.47;;;29.80;99.90;;;;;;4973673;28;20030;-55
2023/08/04 05:34:49;;;;;;;8.02;2.30;;;29.80;99.90;;;;;;4974324;28;20026;-56
2023/08/04 05:37:15;;;;;;;9.88;2.42;;;29.70;99.90;;;;;;4974323;28;20058;-56
2023/08/04 05:39:41;;;;;;;10.18;2.13;;;29.70;99.90;;;;;;4974374;28;20039;-56
2023/08/04 05:42:07;;;;;;;15.63;2.40;;;29.70;99.90;;;;;;4974217;28;20042;-56
2023/08/04 05:44:32;;;;;;;16.48;2.78;;;29.70;99.90;;;;;;4988626;28;20069;-56
2023/08/04 05:47:01;;;;;;;20.42;4.13;;;29.70;99.90;;;;;;4973847;28;20030;-56
2023/08/04 05:49:27;;;;;;;10.95;2.45;;;29.70;99.90;;;;;;4973990;28;20029;-56
2023/08/04 05:51:53;;;;;;;13.40;3.10;;;29.70;99.90;;;;;;4974017;28;20039;-56
2023/08/04 05:54:18;;;;;;;17.08;3.03;;;29.70;99.90;;;;;;4973957;28;20390;-57
2023/08/04 05:56:44;;;;;;;9.80;2.08;;;29.70;99.90;;;;;;4973942;28;20027;-56
2023/08/04 05:59:10;;;;;;;19.08;2.60;;;29.70;99.90;;;;;;4974082;28;20084;-55
2023/08/04 06:01:36;;;;;;;13.43;2.53;;;29.60;99.90;;;;;;4973582;28;20127;-56
2023/08/04 06:04:02;;;;;;;11.00;2.17;;;29.60;99.90;;;;;;4973694;28;20029;-56
2023/08/04 06:06:28;;;;;;;7.15;2.38;;;29.70;99.90;;;;;;4973776;28;20038;-57
2023/08/04 06:08:54;;;;;;;17.20;3.65;;;29.70;99.90;;;;;;4973621;28;20026;-56
2023/08/04 06:11:21;;;;;;;14.48;2.28;;;29.70;99.90;;;;;;4973599;28;20471;-57
2023/08/04 06:13:47;;;;;;;13.05;2.55;;;29.70;99.90;;;;;;4973498;28;20078;-57
2023/08/04 06:16:13;;;;;;;14.13;2.40;;;29.70;99.90;;;;;;4988593;28;20027;-55
2023/08/04 06:18:39;;;;;;;15.10;2.30;;;29.70;99.90;;;;;;4973524;28;20023;-55
2023/08/04 06:21:05;;;;;;;9.27;2.22;;;29.70;99.90;;;;;;4973482;28;20031;-54
2023/08/04 06:23:30;;;;;;;10.10;2.20;;;29.70;99.90;;;;;;4973441;28;20033;-54
2023/08/04 06:25:56;;;;;;;6.82;1.70;;;29.70;99.90;;;;;;4988187;28;20022;-54
2023/08/04 06:28:22;;;;;;;14.80;2.50;;;29.70;99.90;;;;;;4973370;28;20041;-54
2023/08/04 06:30:47;;;;;;;15.52;2.63;;;29.80;99.90;;;;;;4973219;28;20026;-53
2023/08/04 06:33:13;;;;;;;12.10;2.70;;;29.70;99.90;;;;;;4973409;28;20022;-55
2023/08/04 06:35:41;;;;;;;14.52;2.45;;;29.70;99.90;;;;;;4973283;28;20526;-55
2023/08/04 06:38:10;;;;;;;11.40;2.60;;;29.70;99.90;;;;;;4973220;28;20073;-55
2023/08/04 06:40:37;;;;;;;14.93;3.35;;;29.70;99.90;;;;;;4987913;28;20035;-55
2023/08/04 06:43:03;;;;;;;17.38;3.05;;;29.70;99.90;;;;;;4988196;28;20042;-55
2023/08/04 06:45:29;;;;;;;26.70;3.17;;;29.70;99.90;;;;;;4973153;28;20031;-55
2023/08/04 06:47:55;;;;;;;11.63;3.47;;;29.70;99.90;;;;;;4972905;28;20049;-55
2023/08/04 06:50:21;;;;;;;20.35;3.58;;;29.70;99.90;;;;;;4973124;28;20101;-55
2023/08/04 06:52:47;;;;;;;12.35;3.47;;;29.70;99.90;;;;;;4973268;28;20018;-54
2023/08/04 06:55:13;;;;;;;16.52;2.72;;;29.70;99.90;;;;;;4973039;28;20159;-54
2023/08/04 06:57:39;;;;;;;17.92;3.10;;;29.70;99.90;;;;;;4972803;28;20034;-54
2023/08/04 07:00:05;;;;;;;19.02;3.40;;;29.70;99.90;;;;;;4972847;28;20090;-53
2023/08/04 07:02:31;;;;;;;11.60;2.57;;;29.70;99.90;;;;;;4972756;28;20154;-54
2023/08/04 07:04:57;;;;;;;13.07;3.28;;;29.70;99.90;;;;;;4972981;28;20272;-54
2023/08/04 07:07:24;;;;;;;13.43;3.15;;;29.70;99.90;;;;;;4972963;28;20026;-54
2023/08/04 07:09:50;;;;;;;21.17;6.00;;;29.70;99.90;;;;;;4987898;28;20058;-54
2023/08/04 07:12:15;;;;;;;17.08;5.47;;;29.70;99.90;;;;;;4973088;28;20085;-53
2023/08/04 07:14:41;;;;;;;15.30;2.55;;;29.70;99.90;;;;;;4972744;28;20031;-54
2023/08/04 07:17:07;;;;;;;15.25;5.22;;;29.70;99.90;;;;;;4972846;28;20037;-54
2023/08/04 07:19:33;;;;;;;13.90;4.07;;;29.70;99.90;;;;;;4972732;28;20027;-54
2023/08/04 07:21:58;;;;;;;16.77;5.78;;;29.70;99.90;;;;;;4987451;28;20070;-54
2023/08/04 07:24:25;;;;;;;13.32;5.47;;;29.70;99.90;;;;;;4972748;28;20030;-54
2023/08/04 07:26:51;;;;;;;9.10;3.22;;;29.80;99.90;;;;;;4972619;28;20058;-55
2023/08/04 07:29:16;;;;;;;12.25;3.17;;;29.80;99.90;;;;;;4972760;28;20050;-54
2023/08/04 07:31:42;;;;;;;10.65;3.00;;;29.80;99.90;;;;;;4973079;28;20395;-54
2023/08/04 07:34:08;;;;;;;11.25;3.05;;;29.80;99.90;;;;;;4972375;28;20023;-54
2023/08/04 07:36:33;;;;;;;13.38;2.75;;;29.90;99.90;;;;;;4970821;28;20395;-54
2023/08/04 07:38:59;;;;;;;10.63;2.72;;;29.90;99.90;;;;;;4970504;28;20490;-54
2023/08/04 07:41:25;;;;;;;9.52;2.90;;;29.90;99.90;;;;;;4971300;28;20045;-54
2023/08/04 07:43:52;;;;;;;10.10;2.80;;;30.00;99.90;;;;;;4972558;28;20027;-54
2023/08/04 07:46:25;;;;;;;12.63;2.97;;;30.00;99.90;;;;;;4972823;28;20027;-54
2023/08/04 07:48:52;;;;;;;6.18;2.45;;;30.10;99.90;;;;;;4987357;28;20046;-54
2023/08/04 07:51:18;;;;;;;9.97;3.80;;;30.10;99.90;;;;;;4972731;28;20041;-54
2023/08/04 07:53:44;;;;;;;13.10;3.35;;;30.20;99.90;;;;;;4972316;28;20023;-54
2023/08/04 07:56:10;;;;;;;14.68;2.97;;;30.20;99.90;;;;;;4972497;28;20027;-54
2023/08/04 07:58:36;;;;;;;12.40;3.28;;;30.30;99.90;;;;;;4972447;28;20038;-54
2023/08/04 08:01:05;;;;;;;24.25;15.52;;;30.30;99.90;;;;;;4988444;28;20045;-54
2023/08/04 08:03:34;;;;;;;23.08;7.47;;;30.30;99.90;;;;;;4990782;28;20376;-55
2023/08/04 08:06:01;;;;;;;21.70;8.90;;;30.40;99.90;;;;;;4991589;28;20025;-55
2023/08/04 08:08:27;;;;;;;21.23;6.88;;;30.40;99.90;;;;;;4991755;28;20142;-54
2023/08/04 08:10:54;;;;;;;24.15;9.70;;;30.40;99.90;;;;;;4995115;28;20037;-55
2023/08/04 08:13:20;;;;;;;21.02;7.93;;;30.50;99.90;;;;;;4994985;28;20033;-56
2023/08/04 08:15:46;;;;;;;19.90;5.97;;;30.50;99.90;;;;;;4995403;28;20033;-56
2023/08/04 08:18:12;;;;;;;23.88;5.93;;;30.50;99.90;;;;;;4994683;28;20653;-55
2023/08/04 08:20:44;;;;;;;15.00;5.30;;;30.50;99.90;;;;;;4994596;28;20525;-55
2023/08/04 08:23:10;;;;;;;22.52;9.07;;;30.50;99.90;;;;;;4994948;28;20034;-57
2023/08/04 08:25:36;;;;;;;20.15;7.82;;;30.50;99.90;;;;;;4994271;28;20022;-54
2023/08/04 08:28:03;;;;;;;21.52;11.07;;;30.40;99.90;;;;;;4994408;28;20052;-54
2023/08/04 08:30:29;;;;;;;19.08;7.65;;;30.40;99.90;;;;;;4994136;28;20042;-55
2023/08/04 08:32:55;;;;;;;24.45;6.13;;;30.40;99.90;;;;;;5008686;28;20443;-55
2023/08/04 08:35:20;;;;;;;19.70;6.03;;;30.50;99.90;;;;;;4994166;28;20050;-54
2023/08/04 08:37:46;;;;;;;13.07;5.30;;;30.50;99.90;;;;;;4993419;28;20023;-54
2023/08/04 08:40:12;;;;;;;16.70;5.85;;;30.50;99.90;;;;;;4994428;28;20193;-55
2023/08/04 08:42:38;;;;;;;23.40;5.65;;;30.50;99.90;;;;;;4993508;28;20034;-55
2023/08/04 08:45:05;;;;;;;20.67;8.68;;;30.50;99.90;;;;;;4994680;28;20022;-57
2023/08/04 08:47:37;;;;;;;;;;;30.60;99.90;;;;;;4995026;28;20027;-56
2023/08/04 08:50:05;;;;;;;20.90;6.95;;;30.60;99.90;;;;;;4994128;28;19937;-57
2023/08/04 08:52:38;;;;;;;14.13;6.18;;;30.70;99.90;;;;;;4993221;28;20026;-57
2023/08/04 08:55:05;;;;;;;14.57;5.60;;;30.70;99.90;;;;;;4994365;28;20022;-57
2023/08/04 08:57:31;;;;;;;20.23;6.00;;;30.70;99.90;;;;;;4994476;28;20026;-57
2023/08/04 08:59:58;;;;;;;19.65;6.03;;;30.80;99.90;;;;;;4994067;28;20046;-58
2023/08/04 09:02:25;;;;;;;19.15;7.30;;;30.80;99.90;;;;;;4994049;28;20491;-58
2023/08/04 09:04:51;;;;;;;17.38;7.95;;;30.80;99.90;;;;;;4994293;28;20018;-57
2023/08/04 09:07:17;;;;;;;23.17;9.55;;;30.90;99.90;;;;;;4994257;28;20033;-57
2023/08/04 09:09:42;;;;;;;18.17;6.78;;;30.90;99.90;;;;;;4994251;28;20030;-58
2023/08/04 09:12:09;;;;;;;21.88;6.60;;;30.90;99.90;;;;;;4994144;28;20387;-56
2023/08/04 09:15:10;;;;;;;14.32;5.35;;;31.00;99.90;;;;;;5009295;28;20474;-56
2023/08/04 09:17:38;;;;;;;24.25;11.35;;;31.00;99.90;;;;;;4972492;28;20073;-56
2023/08/04 09:20:09;;;;;;;23.15;10.45;;;31.00;99.90;;;;;;4989873;28;20038;-57
2023/08/04 09:22:41;;;;;;;25.38;8.30;;;31.10;99.90;;;;;;4993815;28;20046;-57
2023/08/04 09:25:07;;;;;;;14.88;7.22;;;31.10;99.90;;;;;;4993800;28;20031;-56
2023/08/04 09:27:38;;;;;;;19.27;6.82;;;31.10;99.90;;;;;;4993848;28;20430;-57
2023/08/04 09:30:06;;;;;;;24.15;6.38;;;31.10;99.90;;;;;;4993833;28;20054;-57
2023/08/04 09:32:40;;;;;;;19.83;5.55;;;31.10;99.90;;;;;;4993948;28;20030;-57
2023/08/04 09:35:07;;;;;;;14.68;5.18;;;31.20;99.90;;;;;;4993875;28;20022;-57
2023/08/04 09:37:34;;;;;;;20.70;8.05;;;31.30;99.90;;;;;;4993908;28;20026;-57
2023/08/04 09:40:11;;;;;;;21.77;11.10;;;31.20;99.90;;;;;;4993719;28;20496;-56
2023/08/04 09:42:37;;;;;;;17.80;6.53;;;31.30;99.90;;;;;;4993504;28;20034;-55
2023/08/04 09:45:03;;;;;;;19.00;6.57;;;31.30;99.90;;;;;;4993672;28;20026;-55
2023/08/04 09:47:29;;;;;;;19.70;6.05;;;31.30;99.90;;;;;;4993510;28;20037;-56
2023/08/04 09:49:57;;;;;;;20.23;5.68;;;31.40;99.90;;;;;;4993551;28;20478;-56
2023/08/04 09:52:24;;;;;;;21.38;6.45;;;31.40;99.90;;;;;;4993537;28;20094;-56
2023/08/04 09:54:52;;;;;;;16.15;7.72;;;31.40;99.90;;;;;;4993238;28;20097;-56
2023/08/04 09:57:19;;;;;;;18.50;5.75;;;31.40;99.90;;;;;;4993243;28;20061;-57
2023/08/04 09:59:47;;;;;;;24.92;7.18;;;31.50;99.90;;;;;;4993078;28;21425;-56
2023/08/04 10:02:14;;;;;;;26.38;6.38;;;31.50;99.90;;;;;;4993001;28;20045;-56
2023/08/04 10:04:41;;;;;;;18.27;5.90;;;31.50;99.90;;;;;;4993270;28;20026;-56
2023/08/04 10:07:09;;;;;;;22.25;6.40;;;31.50;99.90;;;;;;5008160;28;20283;-55
2023/08/04 10:09:35;;;;;;;21.75;5.70;;;31.50;99.90;;;;;;4992857;28;20022;-56
2023/08/04 10:12:02;;;;;;;23.42;9.32;;;31.50;99.90;;;;;;4992956;28;20026;-56
2023/08/04 10:14:28;;;;;;;26.58;12.02;;;31.50;99.90;;;;;;4990050;28;20124;-54
2023/08/04 10:16:54;;;;;;;21.45;7.18;;;31.50;99.90;;;;;;4974893;28;20486;-53
2023/08/04 10:19:23;;;;;;;16.33;6.63;;;31.50;99.90;;;;;;4985181;28;20069;-55
2023/08/04 10:21:50;;;;;;;23.00;6.40;;;31.60;99.90;;;;;;4992070;28;20038;-55
2023/08/04 10:24:20;;;;;;;19.77;6.85;;;31.60;99.90;;;;;;4992415;28;20046;-53
2023/08/04 10:26:51;;;;;;;20.17;6.40;;;31.60;99.90;;;;;;4990233;28;20022;-54
2023/08/04 10:29:18;;;;;;;15.90;4.82;;;31.60;99.90;;;;;;4989873;28;20065;-54
2023/08/04 10:31:51;;;;;;;20.23;5.53;;;31.60;99.90;;;;;;4971460;28;20031;-54
2023/08/04 10:34:27;;;;;;;20.17;5.53;;;31.60;99.90;;;;;;4972321;28;20065;-54
2023/08/04 10:37:06;;;;;;;18.77;5.03;;;31.60;99.90;;;;;;4971870;28;20042;-54
2023/08/04 10:39:35;;;;;;;19.23;6.05;;;31.70;99.90;;;;;;4972313;28;20033;-55
2023/08/04 10:42:14;;;;;;;17.42;6.65;;;31.70;99.90;;;;;;4971542;28;20062;-55
2023/08/04 10:44:50;;;;;;;18.67;5.65;;;31.70;99.90;;;;;;4972325;28;20368;-55
2023/08/04 10:47:32;;;;;;;18.83;4.55;;;31.70;99.90;;;;;;4971428;28;20035;-55
2023/08/04 10:49:58;;;;;;;18.67;5.10;;;31.80;99.90;;;;;;4972146;28;20027;-55
2023/08/04 10:52:25;;;;;;;23.08;5.22;;;31.80;99.90;;;;;;4986853;28;20038;-53
2023/08/04 10:54:55;;;;;;;15.25;5.50;;;31.80;99.90;;;;;;4976105;28;20497;-55
2023/08/04 10:57:22;;;;;;;18.70;5.55;;;31.80;99.90;;;;;;4990566;28;20062;-54
2023/08/04 10:59:49;;;;;;;11.13;5.22;;;31.80;99.90;;;;;;5005700;28;20034;-55
2023/08/04 11:02:19;;;;;;;16.80;4.90;;;31.80;99.90;;;;;;4990586;28;20502;-54
2023/08/04 11:04:45;;;;;;;20.20;5.10;;;31.80;99.90;;;;;;4979543;28;20065;-54
2023/08/04 11:07:12;;;;;;;16.45;3.90;;;31.90;99.90;;;;;;5006024;28;20382;-52
2023/08/04 11:09:38;;;;;;;15.65;4.68;;;31.90;99.90;;;;;;4971835;28;20019;-51
2023/08/04 11:12:07;;;;;;;20.70;4.82;;;31.90;99.90;;;;;;4970983;28;20027;-51
2023/08/04 11:14:35;;;;;;;18.00;5.05;;;31.90;99.90;;;;;;4972804;28;20030;-53
2023/08/04 11:17:01;;;;;;;;;;;32.00;99.90;;;;;;4973140;28;20035;-52
2023/08/04 11:19:32;;;;;;;16.55;4.70;;;31.90;99.90;;;;;;4972829;28;19906;-53
2023/08/04 11:22:11;;;;;;;14.52;4.70;;;32.00;99.90;;;;;;4972447;28;20138;-52
2023/08/04 11:24:37;;;;;;;15.88;4.38;;;32.00;99.90;;;;;;4972453;28;20026;-53
2023/08/04 11:27:04;;;;;;;16.25;4.90;;;32.10;99.90;;;;;;4972621;28;20035;-53
2023/08/04 11:29:29;;;;;;;;;;;32.00;99.90;;;;;;4973403;28;20051;-53
2023/08/04 11:31:55;;;;;;;20.88;4.82;;;32.10;99.90;;;;;;4971961;28;19941;-56
2023/08/04 11:34:21;;;;;;;16.10;5.00;;;32.10;99.90;;;;;;4972688;28;20035;-55
2023/08/04 11:36:47;;;;;;;17.52;5.47;;;32.20;99.90;;;;;;4972485;28;20093;-55
2023/08/04 11:39:13;;;;;;;10.77;4.85;;;32.20;99.90;;;;;;4972374;28;20193;-55
2023/08/04 11:41:38;;;;;;;16.08;5.13;;;32.10;99.90;;;;;;4972452;28;20035;-55
2023/08/04 11:44:04;;;;;;;13.20;5.18;;;32.00;99.90;;;;;;4974256;28;20030;-55
2023/08/04 11:46:30;;;;;;;18.83;5.40;;;31.90;99.90;;;;;;4976527;28;20030;-55
2023/08/04 11:48:56;;;;;;;18.73;6.22;;;31.80;99.90;;;;;;4976173;28;20022;-55
2023/08/04 11:51:22;;;;;;;26.42;21.50;;;31.60;99.90;;;;;;4976306;28;20051;-56
2023/08/04 11:53:49;;;;;;;102.45;79.20;;;31.60;99.90;;;;;;4976276;28;20030;-56
2023/08/04 11:56:15;;;;;;;64.82;50.33;;;31.40;99.90;;;;;;4990987;28;20031;-56
2023/08/04 11:58:43;;;;;;;72.80;53.92;;;31.40;99.90;;;;;;4987304;28;20483;-54
2023/08/04 12:01:26;;;;;;;65.65;49.97;;;31.20;99.90;;;;;;5004139;28;20057;-54
2023/08/04 12:03:52;;;;;;;68.15;49.55;;;31.20;99.90;;;;;;4988834;28;20180;-55
2023/08/04 12:06:22;;;;;;;62.67;47.58;;;31.10;99.90;;;;;;5007212;28;20105;-56
2023/08/04 12:08:49;;;;;;;64.40;47.58;;;31.00;99.90;;;;;;4993738;28;20078;-57
2023/08/04 12:11:16;;;;;;;57.60;45.07;;;30.90;99.90;;;;;;4999671;28;20029;-55
2023/08/04 12:13:42;;;;;;;60.10;45.33;;;30.80;99.90;;;;;;4978854;28;20268;-55
2023/08/04 12:16:08;;;;;;;57.33;43.30;;;30.70;99.90;;;;;;4993339;28;20022;-55
2023/08/04 12:18:34;;;;;;;59.42;45.05;;;30.60;99.90;;;;;;5004205;28;20026;-54
2023/08/04 12:21:00;;;;;;;56.25;42.05;;;30.60;99.90;;;;;;4995755;28;20414;-53
2023/08/04 12:23:25;;;;;;;55.90;42.63;;;30.50;99.90;;;;;;4992711;28;20385;-54
2023/08/04 12:25:52;;;;;;;53.90;41.63;;;30.40;99.90;;;;;;4987796;28;20111;-55
2023/08/04 12:28:18;;;;;;;55.65;40.25;;;30.30;99.90;;;;;;4987718;28;20018;-56
2023/08/04 12:30:44;;;;;;;54.45;39.42;;;30.30;99.90;;;;;;4983037;28;20019;-54
2023/08/04 12:33:10;;;;;;;52.15;39.72;;;30.20;99.90;;;;;;4993969;28;20439;-53
2023/08/04 12:35:35;;;;;;;51.67;38.92;;;30.20;99.90;;;;;;5018953;28;20037;-54
2023/08/04 12:38:04;;;;;;;50.83;37.67;;;30.20;99.90;;;;;;5004774;28;20505;-54